Terminal Aerodrome Forecast
Issued by NWS

Home | Current Version | Previous Version | Text Only | Print | Product List | Glossary On
Versions: 1 2 3 4 5 6 7 8 9 10 11 12 13 14 15 16 17 18 19
000
FTUS41 KGYX 240500
TAFPSM
TAF
KPSM 240522Z 2406/2506 30013G23KT P6SM BKN060
     FM240800 31010G20KT P6SM BKN060
     FM241500 31023G35KT P6SM SCT060 SCT100
     FM250200 32010KT P6SM SKC=

USA.gov is the U.S. government's official web portal to all federal, state and local government web resources and services.